Terminal Aerodrome Forecast
Issued by NWS

Home | Current Version | Previous Version | Text Only | Print | Product List | Glossary On
Versions: 1 2 3 4 5 6 7 8 9 10 11 12 13 14 15 16 17 18 19
303
FTUS41 KCAR 221127
TAFBHB
TAF
KBHB 221127Z 2212/2312 17010KT P6SM SCT003 BKN010
     FM221600 21010G20KT P6SM SCT015 BKN035
     FM222100 26007KT P6SM BKN100
     FM230200 29007KT P6SM BKN070
      AMD LTD TO CLD VIS AND WIND=

USA.gov is the U.S. government's official web portal to all federal, state and local government web resources and services.